Time;durP1;ratioP1;P1;durP2;ratioP2;P2;SDS_P1;SDS_P2;PMS_P1;PMS_P2;Temp;Humidity;BMP_temperature;BMP_pressure;BME280_temperature;BME280_humidity;BME280_pressure;Samples;Min_cycle;Max_cycle;Signal;HPM_P1;HPM_P2
2021/06/18 00:02:03;;;;;;;6.68;5.75;;;;;;;;;;5071959;28;20084;-66
2021/06/18 00:04:30;;;;;;;8.77;5.18;;;;;;;;;;5070984;28;20080;-65
2021/06/18 00:06:56;;;;;;;6.25;5.38;;;;;;;;;;5059468;28;20084;-65
2021/06/18 00:09:23;;;;;;;5.72;5.13;;;;;;;;;;5051371;28;20053;-65
2021/06/18 00:11:49;;;;;;;6.30;5.55;;;;;;;;;;5051290;28;20127;-65
2021/06/18 00:14:16;;;;;;;5.43;4.68;;;;;;;;;;5051602;28;20069;-66
2021/06/18 00:16:43;;;;;;;7.35;5.07;;;;;;;;;;5051286;28;20049;-65
2021/06/18 00:19:09;;;;;;;5.68;4.70;;;;;;;;;;5051426;28;20085;-65
2021/06/18 00:21:36;;;;;;;5.30;4.80;;;;;;;;;;5051220;28;20099;-65
2021/06/18 00:24:02;;;;;;;8.38;4.82;;;;;;;;;;5051418;28;20080;-65
2021/06/18 00:26:29;;;;;;;6.95;4.88;;;;;;;;;;5059598;28;20163;-66
2021/06/18 00:28:55;;;;;;;5.25;4.70;;;;;;;;;;5071265;28;20095;-66
2021/06/18 00:31:22;;;;;;;5.43;4.60;;;;;;;;;;5071415;28;20072;-66
2021/06/18 00:33:49;;;;;;;5.35;4.85;;;;;;;;;;5071098;28;20049;-66
2021/06/18 00:36:16;;;;;;;4.95;4.25;;;;;;;;;;5065680;28;20041;-65
2021/06/18 00:38:42;;;;;;;6.72;4.68;;;;;;;;;;5051210;28;20080;-66
2021/06/18 00:41:09;;;;;;;7.20;4.97;;;;;;;;;;5051311;28;20546;-66
2021/06/18 00:43:36;;;;;;;4.90;4.15;;;;;;;;;;5051068;28;20049;-66
2021/06/18 00:46:03;;;;;;;5.32;4.45;;;;;;;;;;5051073;28;20085;-65
2021/06/18 00:48:29;;;;;;;7.45;4.72;;;;;;;;;;5050978;28;20499;-65
2021/06/18 00:50:56;;;;;;;7.35;4.72;;;;;;;;;;5033548;28;20508;-65
2021/06/18 00:53:22;;;;;;;6.57;4.18;;;;;;;;;;5050969;28;20409;-66
2021/06/18 00:55:49;;;;;;;7.30;4.65;;;;;;;;;;5033492;28;20556;-65
2021/06/18 00:58:16;;;;;;;5.57;4.50;;;;;;;;;;5033633;28;20084;-66
2021/06/18 01:00:44;;;;;;;6.85;4.75;;;;;;;;;;5051027;28;20052;-66
2021/06/18 01:03:11;;;;;;;6.97;4.50;;;;;;;;;;5051069;28;20123;-66
2021/06/18 01:05:38;;;;;;;6.45;4.38;;;;;;;;;;5060781;28;20041;-66
2021/06/18 01:08:38;;;;;;;7.45;4.63;;;;;;;;;;5035356;28;20164;-66
2021/06/18 01:11:13;;;;;;;5.45;4.60;;;;;;;;;;5051439;28;20049;-66
2021/06/18 01:13:57;;;;;;;6.47;4.80;;;;;;;;;;5052980;28;20057;-66
2021/06/18 01:16:34;;;;;;;6.88;4.80;;;;;;;;;;5037725;28;20076;-66
2021/06/18 01:19:28;;;;;;;5.53;4.28;;;;;;;;;;5074654;28;20048;-66
2021/06/18 01:22:00;;;;;;;6.00;4.43;;;;;;;;;;5057982;28;20072;-66
2021/06/18 01:24:56;;;;;;;6.75;4.80;;;;;;;;;;5057072;28;20079;-66
2021/06/18 01:27:42;;;;;;;5.45;4.43;;;;;;;;;;5073472;28;20080;-66
2021/06/18 01:30:11;;;;;;;5.82;5.32;;;;;;;;;;5058828;28;20185;-66
2021/06/18 01:32:52;;;;;;;11.95;5.70;;;;;;;;;;5074008;28;20055;-66
2021/06/18 01:35:20;;;;;;;5.78;4.88;;;;;;;;;;5049831;28;20081;-66
2021/06/18 01:37:52;;;;;;;7.03;4.93;;;;;;;;;;5036458;28;20079;-66
2021/06/18 01:40:21;;;;;;;7.50;5.05;;;;;;;;;;5036616;28;20088;-66
2021/06/18 01:42:48;;;;;;;8.82;5.65;;;;;;;;;;5052843;28;20066;-66
2021/06/18 01:45:17;;;;;;;6.38;4.78;;;;;;;;;;5043401;28;20080;-66
2021/06/18 01:47:45;;;;;;;5.85;4.20;;;;;;;;;;5073926;28;20526;-66
2021/06/18 01:50:13;;;;;;;6.85;4.65;;;;;;;;;;5073890;28;20095;-65
2021/06/18 01:52:43;;;;;;;7.35;5.05;;;;;;;;;;5039640;28;20060;-66
2021/06/18 01:55:11;;;;;;;6.75;4.78;;;;;;;;;;5050148;28;20091;-66
2021/06/18 01:57:38;;;;;;;6.38;5.20;;;;;;;;;;5036083;28;20056;-66
2021/06/18 02:00:07;;;;;;;6.00;5.05;;;;;;;;;;5036164;28;20088;-66
2021/06/18 02:02:34;;;;;;;7.40;4.82;;;;;;;;;;5053613;28;20503;-66
2021/06/18 02:05:04;;;;;;;7.32;5.18;;;;;;;;;;5036033;28;20081;-65
2021/06/18 02:07:31;;;;;;;5.93;4.97;;;;;;;;;;5053570;28;20092;-66
2021/06/18 02:09:58;;;;;;;7.60;5.43;;;;;;;;;;5035801;28;20049;-66
2021/06/18 02:12:24;;;;;;;5.10;4.70;;;;;;;;;;5035983;28;20053;-66
2021/06/18 02:14:51;;;;;;;5.85;5.25;;;;;;;;;;5051142;28;20075;-66
2021/06/18 02:17:18;;;;;;;7.88;5.10;;;;;;;;;;5047086;28;20088;-66
2021/06/18 02:19:46;;;;;;;5.85;4.82;;;;;;;;;;5073182;28;20053;-66
2021/06/18 02:22:12;;;;;;;6.90;6.20;;;;;;;;;;5039572;28;20076;-66
2021/06/18 02:24:40;;;;;;;5.00;4.60;;;;;;;;;;5035307;28;20084;-66
2021/06/18 02:27:07;;;;;;;5.07;4.68;;;;;;;;;;5019389;28;20049;-66
2021/06/18 02:29:34;;;;;;;6.13;5.10;;;;;;;;;;5018878;28;20052;-66
2021/06/18 02:32:03;;;;;;;11.15;5.47;;;;;;;;;;5019201;28;20080;-65
2021/06/18 02:34:29;;;;;;;6.03;5.53;;;;;;;;;;5035484;28;20053;-66
2021/06/18 02:36:59;;;;;;;6.20;5.55;;;;;;;;;;5053323;28;20053;-66
2021/06/18 02:39:25;;;;;;;7.05;5.25;;;;;;;;;;5052999;28;20090;-65
2021/06/18 02:41:52;;;;;;;6.07;4.63;;;;;;;;;;5035316;28;20139;-66
2021/06/18 02:44:18;;;;;;;5.50;4.95;;;;;;;;;;5052918;28;20095;-66
2021/06/18 02:47:25;;;;;;;5.68;4.88;;;;;;;;;;5052772;28;20077;-65
2021/06/18 02:49:51;;;;;;;8.70;5.95;;;;;;;;;;5021838;28;20551;-65
2021/06/18 02:52:55;;;;;;;5.78;4.53;;;;;;;;;;5052746;28;20049;-66
2021/06/18 02:55:37;;;;;;;5.82;4.40;;;;;;;;;;5057625;28;20075;-66
2021/06/18 02:58:17;;;;;;;5.32;4.80;;;;;;;;;;5040351;28;20083;-65
2021/06/18 03:00:44;;;;;;;6.25;4.90;;;;;;;;;;5038655;28;20083;-66
2021/06/18 03:03:11;;;;;;;4.80;4.35;;;;;;;;;;5038373;28;20480;-65
2021/06/18 03:05:38;;;;;;;7.63;5.20;;;;;;;;;;5054776;28;20092;-65
2021/06/18 03:08:06;;;;;;;7.00;5.55;;;;;;;;;;5038261;28;20102;-66
2021/06/18 03:10:40;;;;;;;6.60;4.97;;;;;;;;;;5095748;22;20068;-63
2021/06/18 03:13:13;;;;;;;5.22;4.82;;;;;;;;;;5075658;28;20052;-64
2021/06/18 03:15:44;;;;;;;6.82;5.43;;;;;;;;;;5058864;28;20075;-63
2021/06/18 03:18:13;;;;;;;8.13;5.35;;;;;;;;;;5092813;28;20111;-63
2021/06/18 03:20:40;;;;;;;6.68;5.70;;;;;;;;;;5054505;28;20572;-63
2021/06/18 03:23:07;;;;;;;6.70;5.30;;;;;;;;;;5054460;28;20083;-63
2021/06/18 03:25:35;;;;;;;7.05;5.53;;;;;;;;;;5071110;28;20048;-64
2021/06/18 03:28:03;;;;;;;7.45;5.80;;;;;;;;;;5071211;28;20072;-64
2021/06/18 03:30:30;;;;;;;8.75;5.80;;;;;;;;;;5054460;28;20075;-63
2021/06/18 03:32:56;;;;;;;9.45;5.85;;;;;;;;;;5054362;28;20056;-65
2021/06/18 03:35:23;;;;;;;6.72;5.65;;;;;;;;;;5054360;28;20068;-63
2021/06/18 03:37:50;;;;;;;9.13;5.85;;;;;;;;;;5070715;28;20467;-64
2021/06/18 03:40:19;;;;;;;9.32;5.80;;;;;;;;;;5070424;28;20044;-64
2021/06/18 03:42:48;;;;;;;8.30;5.90;;;;;;;;;;5054107;28;20105;-64
2021/06/18 03:45:15;;;;;;;9.45;6.13;;;;;;;;;;5070765;28;20507;-64
2021/06/18 03:47:41;;;;;;;9.43;5.80;;;;;;;;;;5071869;28;20048;-64
2021/06/18 03:50:09;;;;;;;6.85;6.15;;;;;;;;;;5054128;28;20080;-64
2021/06/18 03:52:36;;;;;;;6.95;6.22;;;;;;;;;;5053921;28;20131;-65
2021/06/18 03:55:07;;;;;;;10.48;6.63;;;;;;;;;;5070738;28;20090;-65
2021/06/18 03:57:35;;;;;;;10.52;7.00;;;;;;;;;;5053832;28;20052;-63
2021/06/18 04:00:04;;;;;;;9.02;6.57;;;;;;;;;;5054057;28;20080;-64
2021/06/18 04:02:31;;;;;;;11.23;6.40;;;;;;;;;;5071570;28;20091;-65
2021/06/18 04:05:00;;;;;;;8.05;6.55;;;;;;;;;;5053846;28;20449;-64
2021/06/18 04:07:28;;;;;;;11.27;6.20;;;;;;;;;;5054009;28;20491;-64
2021/06/18 04:09:55;;;;;;;9.82;6.15;;;;;;;;;;5053604;28;20083;-64
2021/06/18 04:12:21;;;;;;;8.27;6.70;;;;;;;;;;5053770;28;20076;-64
2021/06/18 04:14:48;;;;;;;8.18;6.45;;;;;;;;;;5053703;28;20049;-65
2021/06/18 04:17:15;;;;;;;9.02;6.15;;;;;;;;;;5054119;28;20083;-64
2021/06/18 04:19:42;;;;;;;7.50;6.20;;;;;;;;;;5053099;28;20499;-64
2021/06/18 04:22:09;;;;;;;8.27;6.57;;;;;;;;;;5059080;28;20077;-64
2021/06/18 04:24:36;;;;;;;8.32;5.78;;;;;;;;;;5033253;28;20511;-64
2021/06/18 04:27:03;;;;;;;7.60;5.50;;;;;;;;;;5033936;28;20072;-63
2021/06/18 04:29:29;;;;;;;9.73;5.70;;;;;;;;;;5051301;28;20102;-64
2021/06/18 04:31:56;;;;;;;8.80;5.70;;;;;;;;;;5053576;28;20076;-63
2021/06/18 04:34:23;;;;;;;10.35;5.07;;;;;;;;;;5033644;28;20055;-63
2021/06/18 04:36:50;;;;;;;7.97;5.18;;;;;;;;;;5051238;28;20081;-64
2021/06/18 04:39:16;;;;;;;5.82;5.32;;;;;;;;;;5050282;28;20087;-63
2021/06/18 04:41:43;;;;;;;6.65;5.15;;;;;;;;;;5052906;28;20137;-63
2021/06/18 04:44:10;;;;;;;8.35;5.07;;;;;;;;;;5053537;28;20102;-64
2021/06/18 04:46:36;;;;;;;6.18;4.85;;;;;;;;;;5071121;28;20068;-63
2021/06/18 04:49:03;;;;;;;8.35;5.00;;;;;;;;;;5071291;28;20465;-63
2021/06/18 04:51:29;;;;;;;7.70;4.60;;;;;;;;;;5048395;28;20077;-63
2021/06/18 04:53:56;;;;;;;6.18;5.15;;;;;;;;;;5053688;28;20061;-64
2021/06/18 04:56:22;;;;;;;7.85;5.82;;;;;;;;;;5037331;28;20570;-63
2021/06/18 04:58:49;;;;;;;6.53;5.10;;;;;;;;;;5055028;28;20085;-63
2021/06/18 05:01:16;;;;;;;9.40;5.60;;;;;;;;;;5066745;28;20084;-63
2021/06/18 05:03:42;;;;;;;5.95;4.93;;;;;;;;;;5056996;28;20124;-64
2021/06/18 05:06:09;;;;;;;6.65;5.28;;;;;;;;;;5073808;28;20084;-64
2021/06/18 05:08:35;;;;;;;6.18;4.97;;;;;;;;;;5073388;28;20506;-63
2021/06/18 05:11:02;;;;;;;7.05;5.75;;;;;;;;;;5063323;28;20165;-65
2021/06/18 05:13:29;;;;;;;9.13;5.45;;;;;;;;;;5036833;28;20049;-64
2021/06/18 05:15:55;;;;;;;7.68;5.00;;;;;;;;;;5054684;28;20110;-63
2021/06/18 05:18:27;;;;;;;7.50;4.93;;;;;;;;;;5037672;28;20526;-64
2021/06/18 05:20:54;;;;;;;10.50;5.70;;;;;;;;;;5054617;28;20096;-64
2021/06/18 05:23:20;;;;;;;12.75;5.80;;;;;;;;;;5056612;28;20367;-64
2021/06/18 05:25:47;;;;;;;12.82;5.38;;;;;;;;;;5074306;28;20080;-64
2021/06/18 05:28:13;;;;;;;8.15;5.30;;;;;;;;;;5074490;28;20451;-64
2021/06/18 05:30:40;;;;;;;9.88;5.88;;;;;;;;;;5072996;28;20514;-64
2021/06/18 05:33:07;;;;;;;6.70;5.28;;;;;;;;;;5074280;28;20059;-66
2021/06/18 05:35:33;;;;;;;7.53;5.07;;;;;;;;;;5065033;28;20084;-63
2021/06/18 05:38:00;;;;;;;5.80;5.22;;;;;;;;;;5068994;28;20088;-63
2021/06/18 05:40:26;;;;;;;7.60;5.70;;;;;;;;;;5074147;28;20094;-63
2021/06/18 05:42:53;;;;;;;10.27;5.82;;;;;;;;;;5073782;28;20099;-66
2021/06/18 05:45:19;;;;;;;7.95;5.50;;;;;;;;;;5073971;28;20075;-63
2021/06/18 05:47:46;;;;;;;8.00;5.38;;;;;;;;;;5073918;28;20080;-63
2021/06/18 05:50:12;;;;;;;11.55;5.30;;;;;;;;;;5073792;28;20444;-67
2021/06/18 05:52:40;;;;;;;11.27;6.05;;;;;;;;;;5073493;28;20485;-67
2021/06/18 05:55:07;;;;;;;11.45;5.85;;;;;;;;;;5058672;28;20085;-67
2021/06/18 05:57:35;;;;;;;10.23;5.95;;;;;;;;;;5070834;28;20081;-67
2021/06/18 06:00:04;;;;;;;10.23;6.40;;;;;;;;;;5056357;28;20084;-67
2021/06/18 06:02:31;;;;;;;6.90;5.53;;;;;;;;;;5055427;28;20080;-67
2021/06/18 06:04:57;;;;;;;9.27;6.25;;;;;;;;;;5073215;28;20076;-67
2021/06/18 06:07:24;;;;;;;13.15;6.50;;;;;;;;;;5073641;28;20072;-67
2021/06/18 06:09:50;;;;;;;8.88;5.63;;;;;;;;;;5073357;28;20074;-67
2021/06/18 06:12:17;;;;;;;11.45;8.88;;;;;;;;;;5055760;28;20458;-67
2021/06/18 06:14:47;;;;;;;8.73;6.60;;;;;;;;;;5072484;28;20056;-67
2021/06/18 06:17:14;;;;;;;7.63;6.30;;;;;;;;;;5073535;28;20048;-66
2021/06/18 06:19:40;;;;;;;7.93;5.80;;;;;;;;;;5073432;28;20491;-67
2021/06/18 06:22:07;;;;;;;8.15;5.78;;;;;;;;;;5073327;28;20087;-67
2021/06/18 06:24:35;;;;;;;8.05;4.95;;;;;;;;;;5055321;28;20086;-68
2021/06/18 06:27:04;;;;;;;9.43;5.13;;;;;;;;;;5073147;28;20080;-66
2021/06/18 06:29:30;;;;;;;8.15;5.50;;;;;;;;;;5071727;28;20057;-66
2021/06/18 06:32:01;;;;;;;8.65;5.55;;;;;;;;;;5055745;28;20051;-67
2021/06/18 06:34:27;;;;;;;8.05;4.82;;;;;;;;;;5073091;28;20072;-68
2021/06/18 06:36:54;;;;;;;6.75;5.05;;;;;;;;;;5073125;28;20044;-67
2021/06/18 06:39:20;;;;;;;6.47;5.20;;;;;;;;;;5073051;28;20082;-67
2021/06/18 06:41:47;;;;;;;7.38;5.43;;;;;;;;;;5072595;28;20117;-67
2021/06/18 06:44:13;;;;;;;7.22;5.45;;;;;;;;;;5072322;28;20415;-67
2021/06/18 06:46:40;;;;;;;7.70;5.13;;;;;;;;;;5062439;28;20140;-68
2021/06/18 06:49:07;;;;;;;9.95;5.38;;;;;;;;;;5053503;28;20063;-69
2021/06/18 06:51:33;;;;;;;7.95;5.28;;;;;;;;;;5064299;28;20048;-65
2021/06/18 06:54:00;;;;;;;8.50;5.20;;;;;;;;;;5048090;28;20045;-70
2021/06/18 06:56:27;;;;;;;10.15;5.13;;;;;;;;;;5045510;28;20540;-64
2021/06/18 06:58:54;;;;;;;5.75;5.18;;;;;;;;;;5046222;28;20412;-66
2021/06/18 07:01:23;;;;;;;6.05;4.72;;;;;;;;;;5063416;28;20415;-67
2021/06/18 07:03:50;;;;;;;9.18;5.05;;;;;;;;;;5033586;28;20056;-66
2021/06/18 07:06:17;;;;;;;6.43;4.50;;;;;;;;;;5062443;28;20049;-67
2021/06/18 07:08:44;;;;;;;7.80;4.93;;;;;;;;;;5066691;28;20084;-66
2021/06/18 07:11:11;;;;;;;5.75;4.20;;;;;;;;;;5043481;28;20502;-66
2021/06/18 07:13:38;;;;;;;7.32;4.78;;;;;;;;;;5064511;28;20052;-68
2021/06/18 07:16:04;;;;;;;7.00;4.30;;;;;;;;;;5062043;28;20105;-67
2021/06/18 07:18:32;;;;;;;5.38;3.90;;;;;;;;;;5061762;28;20045;-66
2021/06/18 07:20:59;;;;;;;6.22;4.47;;;;;;;;;;5060140;28;20057;-65
2021/06/18 07:23:26;;;;;;;6.68;4.43;;;;;;;;;;5058931;28;20124;-70
2021/06/18 07:25:52;;;;;;;6.32;5.30;;;;;;;;;;5052734;28;20080;-69
2021/06/18 07:28:19;;;;;;;4.43;4.03;;;;;;;;;;5051394;28;20416;-69
2021/06/18 07:30:45;;;;;;;6.35;5.38;;;;;;;;;;5064268;28;20068;-70
2021/06/18 07:33:12;;;;;;;7.95;5.07;;;;;;;;;;5058981;28;20140;-67
2021/06/18 07:35:38;;;;;;;5.25;4.60;;;;;;;;;;5052414;28;20052;-66
2021/06/18 07:38:05;;;;;;;7.97;5.03;;;;;;;;;;5059189;28;20072;-65
2021/06/18 07:40:32;;;;;;;6.90;4.63;;;;;;;;;;5052900;28;20127;-65
2021/06/18 07:42:59;;;;;;;5.53;4.35;;;;;;;;;;5041630;28;20510;-65
2021/06/18 07:45:26;;;;;;;6.90;4.45;;;;;;;;;;5057415;28;20083;-65
2021/06/18 07:47:52;;;;;;;6.32;4.57;;;;;;;;;;5050825;28;20075;-64
2021/06/18 07:50:20;;;;;;;6.45;4.10;;;;;;;;;;5063587;28;20076;-66
2021/06/18 07:52:47;;;;;;;6.47;4.82;;;;;;;;;;5059752;28;20122;-65
2021/06/18 07:55:22;;;;;;;7.30;4.80;;;;;;;;;;5039785;28;20055;-64
2021/06/18 07:57:51;;;;;;;8.25;5.28;;;;;;;;;;5043497;28;20173;-64
2021/06/18 08:00:18;;;;;;;7.18;4.80;;;;;;;;;;5041682;28;20096;-65
2021/06/18 08:02:46;;;;;;;5.82;4.80;;;;;;;;;;5040417;28;20083;-66
2021/06/18 08:05:12;;;;;;;5.38;4.88;;;;;;;;;;5050631;28;20044;-65
2021/06/18 08:07:40;;;;;;;8.02;4.75;;;;;;;;;;5052491;28;20053;-65
2021/06/18 08:10:08;;;;;;;6.35;4.95;;;;;;;;;;5058994;28;20049;-65
2021/06/18 08:12:36;;;;;;;6.15;4.50;;;;;;;;;;5038891;28;20045;-65
2021/06/18 08:15:04;;;;;;;6.68;5.05;;;;;;;;;;5060105;28;20053;-65
2021/06/18 08:17:31;;;;;;;5.93;4.57;;;;;;;;;;5030553;28;20041;-63
2021/06/18 08:19:57;;;;;;;8.80;5.20;;;;;;;;;;5060308;28;20570;-64
2021/06/18 08:22:24;;;;;;;7.00;5.03;;;;;;;;;;5059632;28;20086;-65
2021/06/18 08:24:51;;;;;;;5.70;5.10;;;;;;;;;;5058445;28;20055;-65
2021/06/18 08:27:17;;;;;;;6.25;4.60;;;;;;;;;;5043164;28;20089;-65
2021/06/18 08:29:44;;;;;;;6.63;4.90;;;;;;;;;;5063763;28;20053;-65
2021/06/18 08:32:10;;;;;;;6.88;5.22;;;;;;;;;;5061282;28;20044;-66
2021/06/18 08:34:37;;;;;;;4.93;4.30;;;;;;;;;;5064308;28;20084;-65
2021/06/18 08:37:04;;;;;;;5.72;4.78;;;;;;;;;;5044881;28;20045;-65
2021/06/18 08:39:31;;;;;;;5.40;4.90;;;;;;;;;;5061555;28;20501;-65
2021/06/18 08:41:57;;;;;;;5.72;5.00;;;;;;;;;;5052506;28;20080;-66
2021/06/18 08:44:25;;;;;;;5.93;4.53;;;;;;;;;;5056383;28;20080;-66
2021/06/18 08:46:53;;;;;;;5.45;4.80;;;;;;;;;;5063254;28;20087;-65
2021/06/18 08:49:21;;;;;;;7.18;5.53;;;;;;;;;;5060153;28;20044;-65
2021/06/18 08:51:48;;;;;;;8.85;5.60;;;;;;;;;;5045550;28;20426;-65
2021/06/18 08:54:14;;;;;;;6.53;4.72;;;;;;;;;;5060763;28;20077;-65
2021/06/18 08:56:42;;;;;;;5.38;4.88;;;;;;;;;;5053132;28;20098;-67
2021/06/18 08:59:08;;;;;;;5.82;4.78;;;;;;;;;;5054900;28;20117;-65
2021/06/18 09:01:35;;;;;;;6.45;5.57;;;;;;;;;;5062104;28;20118;-66
2021/06/18 09:04:06;;;;;;;6.65;4.13;;;;;;;;;;5046254;28;20088;-68
2021/06/18 09:06:39;;;;;;;8.55;5.20;;;;;;;;;;5045586;28;20075;-66
2021/06/18 09:09:21;;;;;;;8.00;5.07;;;;;;;;;;5065054;28;20087;-67
2021/06/18 09:11:53;;;;;;;6.80;5.32;;;;;;;;;;5061969;28;20084;-67
2021/06/18 09:14:20;;;;;;;5.43;4.75;;;;;;;;;;5058873;28;20071;-67
2021/06/18 09:17:20;;;;;;;6.20;5.30;;;;;;;;;;5061807;28;20040;-65
2021/06/18 09:19:49;;;;;;;6.10;5.50;;;;;;;;;;5046035;28;20190;-65
2021/06/18 09:22:20;;;;;;;7.20;5.38;;;;;;;;;;5042789;28;20462;-65
2021/06/18 09:24:49;;;;;;;6.15;4.95;;;;;;;;;;5046716;28;20079;-67
2021/06/18 09:27:15;;;;;;;7.65;5.63;;;;;;;;;;5051499;28;20568;-67
2021/06/18 09:29:42;;;;;;;7.00;4.90;;;;;;;;;;5036649;28;20161;-65
2021/06/18 09:32:12;;;;;;;6.30;4.85;;;;;;;;;;5063123;28;20511;-66
2021/06/18 09:34:59;;;;;;;7.05;5.00;;;;;;;;;;5058542;28;20095;-68
2021/06/18 09:37:30;;;;;;;5.93;5.32;;;;;;;;;;5056664;28;20045;-67
2021/06/18 09:40:17;;;;;;;6.93;4.97;;;;;;;;;;5057992;28;20329;-66
2021/06/18 09:42:51;;;;;;;6.68;5.50;;;;;;;;;;5058343;28;20103;-66
2021/06/18 09:45:20;;;;;;;8.05;5.18;;;;;;;;;;5058126;28;20084;-66
2021/06/18 09:47:47;;;;;;;8.00;6.32;;;;;;;;;;5033992;28;20602;-68
2021/06/18 09:50:14;;;;;;;7.70;5.05;;;;;;;;;;5038365;28;20048;-68
2021/06/18 09:52:42;;;;;;;7.47;5.60;;;;;;;;;;5061330;28;20110;-65
2021/06/18 09:55:09;;;;;;;11.50;6.90;;;;;;;;;;5057449;28;20130;-67
2021/06/18 09:57:39;;;;;;;13.32;5.45;;;;;;;;;;5061275;28;20054;-67
2021/06/18 10:00:17;;;;;;;6.20;5.60;;;;;;;;;;5057333;28;20076;-65
2021/06/18 10:02:49;;;;;;;6.60;5.25;;;;;;;;;;5060432;28;20132;-65
2021/06/18 10:05:26;;;;;;;6.70;4.78;;;;;;;;;;5062111;28;20450;-64
2021/06/18 10:07:54;;;;;;;8.07;5.35;;;;;;;;;;5088272;22;20092;-66
2021/06/18 10:10:28;;;;;;;7.30;5.03;;;;;;;;;;5062525;28;20471;-66
2021/06/18 10:12:56;;;;;;;5.95;4.43;;;;;;;;;;5060888;28;20178;-66
2021/06/18 10:15:24;;;;;;;6.30;4.90;;;;;;;;;;5058867;28;20060;-69
2021/06/18 10:17:53;;;;;;;6.15;4.80;;;;;;;;;;5063195;28;20077;-67
2021/06/18 10:20:33;;;;;;;5.15;4.60;;;;;;;;;;5059005;28;20049;-67
2021/06/18 10:23:06;;;;;;;8.38;5.65;;;;;;;;;;5062089;28;20502;-67
2021/06/18 10:25:37;;;;;;;6.03;5.15;;;;;;;;;;5058569;28;20085;-66
2021/06/18 10:28:09;;;;;;;6.57;5.68;;;;;;;;;;5057500;28;20041;-68
2021/06/18 10:30:49;;;;;;;9.25;5.95;;;;;;;;;;5045115;28;20056;-67
2021/06/18 10:33:25;;;;;;;5.05;4.03;;;;;;;;;;5062971;28;20103;-67
2021/06/18 10:35:58;;;;;;;4.70;4.30;;;;;;;;;;5060437;28;20105;-70
2021/06/18 10:38:36;;;;;;;4.72;4.13;;;;;;;;;;5061770;28;20036;-69
2021/06/18 10:41:26;;;;;;;4.72;4.30;;;;;;;;;;5062702;28;20118;-68
2021/06/18 10:43:57;;;;;;;8.02;4.70;;;;;;;;;;5042168;28;20099;-70
2021/06/18 10:46:28;;;;;;;6.53;4.03;;;;;;;;;;5043426;28;20045;-70
2021/06/18 10:48:56;;;;;;;7.18;3.88;;;;;;;;;;5060062;28;20045;-70
2021/06/18 10:51:41;;;;;;;4.10;3.70;;;;;;;;;;5058446;28;20095;-70
2021/06/18 10:54:12;;;;;;;4.45;4.03;;;;;;;;;;5058001;28;20482;-70
2021/06/18 10:56:45;;;;;;;6.93;4.38;;;;;;;;;;5059725;28;20084;-69
2021/06/18 10:59:16;;;;;;;6.65;4.57;;;;;;;;;;5061846;28;20041;-69
2021/06/18 11:01:46;;;;;;;6.78;4.35;;;;;;;;;;5062088;28;20501;-69
2021/06/18 11:04:13;;;;;;;4.38;3.97;;;;;;;;;;5060235;28;20049;-72
2021/06/18 11:06:40;;;;;;;4.00;3.70;;;;;;;;;;5039714;28;20083;-71
2021/06/18 11:09:10;;;;;;;5.55;3.90;;;;;;;;;;5066286;28;20041;-70
2021/06/18 11:11:38;;;;;;;5.55;3.50;;;;;;;;;;5027904;28;20407;-69
2021/06/18 11:14:06;;;;;;;3.63;3.30;;;;;;;;;;5041202;28;20501;-68
2021/06/18 11:16:36;;;;;;;3.90;3.60;;;;;;;;;;5056381;28;20095;-67
2021/06/18 11:19:47;;;;;;;5.88;4.00;;;;;;;;;;5056922;28;20052;-68
2021/06/18 11:22:33;;;;;;;4.43;3.17;;;;;;;;;;5005522;28;20100;-68
2021/06/18 11:25:00;;;;;;;3.20;2.92;;;;;;;;;;5060115;28;20466;-65
2021/06/18 11:27:28;;;;;;;3.00;2.75;;;;;;;;;;5056946;28;20087;-68
2021/06/18 11:30:23;;;;;;;3.20;2.90;;;;;;;;;;5057408;28;20095;-69
2021/06/18 11:32:49;;;;;;;2.45;2.25;;;;;;;;;;5057338;28;20096;-69
2021/06/18 11:35:31;;;;;;;2.42;2.13;;;;;;;;;;5059342;28;20080;-67
2021/06/18 11:38:10;;;;;;;2.10;1.90;;;;;;;;;;5059456;28;20048;-68
2021/06/18 11:40:37;;;;;;;3.05;2.83;;;;;;;;;;5040177;28;20474;-68
2021/06/18 11:43:03;;;;;;;5.75;5.25;;;;;;;;;;5059840;28;20076;-68
2021/06/18 11:45:41;;;;;;;3.10;2.88;;;;;;;;;;5059692;28;20076;-68
2021/06/18 11:48:15;;;;;;;2.90;2.42;;;;;;;;;;5060506;28;20131;-68
2021/06/18 11:50:43;;;;;;;4.38;2.75;;;;;;;;;;5061470;28;20420;-68
2021/06/18 11:53:10;;;;;;;4.65;2.80;;;;;;;;;;5058211;28;20060;-69
2021/06/18 11:55:37;;;;;;;3.35;3.05;;;;;;;;;;5058731;28;20487;-68
2021/06/18 11:58:03;;;;;;;3.63;3.20;;;;;;;;;;5057368;28;20475;-69
2021/06/18 12:00:33;;;;;;;4.78;4.20;;;;;;;;;;5040210;28;20469;-68
2021/06/18 12:03:01;;;;;;;3.95;3.55;;;;;;;;;;5057995;28;20056;-69
2021/06/18 12:05:31;;;;;;;6.95;3.20;;;;;;;;;;5058388;28;20491;-70
2021/06/18 12:07:59;;;;;;;5.22;3.65;;;;;;;;;;5061879;28;20075;-70
2021/06/18 12:10:28;;;;;;;3.40;3.17;;;;;;;;;;5056962;28;20053;-70
2021/06/18 12:12:57;;;;;;;5.72;3.33;;;;;;;;;;5058530;28;20059;-69
2021/06/18 12:15:32;;;;;;;4.65;4.25;;;;;;;;;;5057277;28;20047;-70
2021/06/18 12:18:06;;;;;;;4.70;3.28;;;;;;;;;;5061302;28;20048;-69
2021/06/18 12:20:38;;;;;;;5.47;3.40;;;;;;;;;;5058364;28;20511;-69
2021/06/18 12:23:05;;;;;;;5.38;2.90;;;;;;;;;;5056718;28;20140;-70
2021/06/18 12:25:32;;;;;;;3.42;3.13;;;;;;;;;;5061017;28;20462;-70
2021/06/18 12:28:01;;;;;;;3.53;3.00;;;;;;;;;;5056979;28;20057;-67
2021/06/18 12:30:29;;;;;;;4.00;3.35;;;;;;;;;;5031127;28;20071;-68
2021/06/18 12:32:57;;;;;;;7.88;3.65;;;;;;;;;;5056751;28;20054;-67
2021/06/18 12:35:32;;;;;;;3.40;2.75;;;;;;;;;;5040470;28;20048;-66
2021/06/18 12:38:00;;;;;;;3.60;3.00;;;;;;;;;;5058468;28;20083;-67
2021/06/18 12:40:28;;;;;;;3.65;3.08;;;;;;;;;;5056367;28;20081;-67
2021/06/18 12:42:56;;;;;;;3.30;3.03;;;;;;;;;;5061162;28;20045;-67
2021/06/18 12:45:22;;;;;;;3.72;3.17;;;;;;;;;;5060198;28;20080;-67
2021/06/18 12:48:13;;;;;;;3.80;3.30;;;;;;;;;;5060132;28;20045;-67
2021/06/18 12:50:59;;;;;;;5.47;3.10;;;;;;;;;;5060697;28;20076;-68
2021/06/18 12:53:31;;;;;;;3.42;2.88;;;;;;;;;;5059102;28;20503;-66
2021/06/18 12:56:08;;;;;;;;;;;;;;;;;;5060000;28;20080;-66
2021/06/18 12:58:35;;;;;;;5.38;3.08;;;;;;;;;;5059657;28;19971;-68
2021/06/18 13:01:05;;;;;;;5.75;3.05;;;;;;;;;;5057044;28;20091;-65
2021/06/18 13:03:53;;;;;;;4.55;3.17;;;;;;;;;;5057631;28;20059;-68
2021/06/18 13:06:21;;;;;;;4.90;3.47;;;;;;;;;;5056036;28;20060;-68
2021/06/18 13:08:58;;;;;;;3.58;2.80;;;;;;;;;;5057049;28;20049;-67
2021/06/18 13:11:32;;;;;;;3.25;3.05;;;;;;;;;;5056288;28;20053;-67
2021/06/18 13:14:24;;;;;;;4.32;3.25;;;;;;;;;;5063886;28;20040;-70
2021/06/18 13:16:57;;;;;;;7.80;3.72;;;;;;;;;;5050632;28;20083;-66
2021/06/18 13:19:45;;;;;;;3.90;3.58;;;;;;;;;;5075787;28;20041;-68
2021/06/18 13:22:14;;;;;;;4.72;3.13;;;;;;;;;;5053191;28;20045;-68
2021/06/18 13:24:56;;;;;;;6.68;3.67;;;;;;;;;;5064862;28;20087;-68
2021/06/18 13:27:24;;;;;;;4.03;3.63;;;;;;;;;;5062273;28;20073;-68
2021/06/18 13:29:59;;;;;;;6.00;4.07;;;;;;;;;;5059887;28;20522;-67
2021/06/18 13:32:28;;;;;;;6.20;4.13;;;;;;;;;;5063718;28;20075;-68
2021/06/18 13:35:14;;;;;;;3.38;3.05;;;;;;;;;;5063453;28;20060;-67
2021/06/18 13:37:42;;;;;;;3.95;3.50;;;;;;;;;;5045286;28;20053;-68
2021/06/18 13:40:24;;;;;;;6.38;3.50;;;;;;;;;;5027042;28;20476;-68
2021/06/18 13:42:51;;;;;;;4.65;3.45;;;;;;;;;;5064106;28;20132;-68
2021/06/18 13:45:17;;;;;;;4.00;3.42;;;;;;;;;;5059150;28;20557;-68
2021/06/18 13:47:44;;;;;;;4.35;2.72;;;;;;;;;;5046273;28;20499;-67
2021/06/18 13:50:12;;;;;;;5.05;2.58;;;;;;;;;;5062665;28;20088;-68
2021/06/18 13:52:41;;;;;;;4.70;2.85;;;;;;;;;;5033386;28;20040;-68
2021/06/18 13:55:08;;;;;;;4.28;2.70;;;;;;;;;;5061474;28;20355;-70
2021/06/18 13:57:35;;;;;;;6.82;3.00;;;;;;;;;;5058842;28;20505;-68
2021/06/18 14:00:06;;;;;;;5.60;2.53;;;;;;;;;;5060152;28;20092;-68
2021/06/18 14:02:33;;;;;;;4.03;2.80;;;;;;;;;;5062275;28;20530;-68
2021/06/18 14:05:00;;;;;;;3.55;2.40;;;;;;;;;;5043742;28;20079;-69
2021/06/18 14:07:26;;;;;;;3.47;2.97;;;;;;;;;;5062215;28;20137;-70
2021/06/18 14:09:53;;;;;;;4.28;2.80;;;;;;;;;;5059999;28;20080;-69
2021/06/18 14:12:20;;;;;;;3.92;2.80;;;;;;;;;;5059164;28;20049;-70
2021/06/18 14:17:31;;;;;;;3.17;2.50;;;;;;;;;;5059711;28;20492;-72
2021/06/18 14:20:02;;;;;;;3.17;2.20;;;;;;;;;;5039123;28;20056;-71
2021/06/18 14:22:32;;;;;;;6.60;2.78;;;;;;;;;;5058814;28;20638;-70
2021/06/18 14:25:01;;;;;;;2.58;2.33;;;;;;;;;;5043765;28;20045;-70
2021/06/18 14:27:30;;;;;;;3.92;2.47;;;;;;;;;;5042709;28;20044;-69
2021/06/18 14:30:00;;;;;;;3.15;2.85;;;;;;;;;;5041169;28;20118;-70
2021/06/18 14:32:28;;;;;;;3.17;2.58;;;;;;;;;;5046576;28;20499;-70
2021/06/18 14:34:56;;;;;;;5.50;2.42;;;;;;;;;;5060339;28;20057;-67
2021/06/18 14:37:26;;;;;;;6.50;2.55;;;;;;;;;;5041400;28;20076;-69
2021/06/18 14:39:54;;;;;;;6.32;2.17;;;;;;;;;;5043317;28;20051;-70
2021/06/18 14:42:21;;;;;;;3.92;2.70;;;;;;;;;;5060872;28;20044;-70
2021/06/18 14:44:48;;;;;;;5.72;2.28;;;;;;;;;;5061050;28;20063;-70
2021/06/18 14:47:17;;;;;;;4.43;2.33;;;;;;;;;;5063106;28;20051;-67
2021/06/18 14:49:45;;;;;;;8.38;2.35;;;;;;;;;;5044465;28;20499;-70
2021/06/18 14:52:11;;;;;;;7.18;2.58;;;;;;;;;;5040842;28;20056;-68
2021/06/18 14:54:41;;;;;;;4.30;2.28;;;;;;;;;;5060962;28;20057;-69
2021/06/18 14:57:08;;;;;;;6.07;2.58;;;;;;;;;;5062261;28;20816;-68
2021/06/18 14:59:34;;;;;;;9.90;2.60;;;;;;;;;;5058987;28;20518;-69
2021/06/18 15:02:01;;;;;;;8.18;2.42;;;;;;;;;;5058847;28;20073;-67